RYR1FD EGNM-EIDW
Flight info
| Callsign | RYR1FD |
|---|---|
| Flight time | N/A |
| Altitude | 28000 |
| Route | POL Y70 KOLID UL70 GUNTU Z196 LELDO M145 BAGSO BAGSO4L |
| Aircraft | B738/M-SDE2E3FGHIRWXY/LB1 |
Departure
| Time | N/A |
|---|---|
| Airport | Leeds Bradford Airport (EGNM) |
Arrival
| Time | 2026-05-06 18:04 |
|---|---|
| Airport | Dublin Airport (EIDW) |
| Time | Latitude | Longitude | Altitude | Speed | Heading |
|---|---|---|---|---|---|
| 2026-05-06 17:44 | 53.58758 | -3.05569 | 27513 ft | 444 kts | 277° |
| 2026-05-06 17:45 | 53.59062 | -3.10967 | 27941 ft | 448 kts | 277° |
| 2026-05-06 17:45 | 53.59370 | -3.16266 | 28000 ft | 446 kts | 278° |
| 2026-05-06 17:45 | 53.60038 | -3.23171 | 28000 ft | 442 kts | 283° |
| 2026-05-06 17:45 | 53.60469 | -3.26519 | 27998 ft | 440 kts | 284° |
| 2026-05-06 17:46 | 53.61188 | -3.31563 | 27992 ft | 439 kts | 285° |
| 2026-05-06 17:46 | 53.61940 | -3.36629 | 27995 ft | 439 kts | 286° |
| 2026-05-06 17:46 | 53.62688 | -3.41690 | 27996 ft | 439 kts | 285° |
| 2026-05-06 17:46 | 53.63408 | -3.46673 | 27992 ft | 439 kts | 285° |
| 2026-05-06 17:47 | 53.64342 | -3.53310 | 27989 ft | 439 kts | 285° |
| 2026-05-06 17:47 | 53.64812 | -3.56718 | 27995 ft | 439 kts | 285° |
| 2026-05-06 17:47 | 53.65497 | -3.61744 | 27993 ft | 439 kts | 285° |
| 2026-05-06 17:47 | 53.66371 | -3.68241 | 28004 ft | 439 kts | 284° |
| 2026-05-06 17:48 | 53.67388 | -3.75876 | 28001 ft | 440 kts | 284° |
| 2026-05-06 17:48 | 53.68934 | -3.87599 | 28005 ft | 440 kts | 284° |
| 2026-05-06 17:49 | 53.70037 | -3.96030 | 28006 ft | 440 kts | 284° |
| 2026-05-06 17:49 | 53.71426 | -4.07909 | 27997 ft | 442 kts | 279° |
| 2026-05-06 17:50 | 53.71682 | -4.13016 | 27997 ft | 443 kts | 274° |
| 2026-05-06 17:50 | 53.71703 | -4.18238 | 27991 ft | 444 kts | 271° |
| 2026-05-06 17:50 | 53.71636 | -4.21659 | 27991 ft | 444 kts | 270° |
| 2026-05-06 17:50 | 53.71420 | -4.28669 | 27986 ft | 444 kts | 269° |
| 2026-05-06 17:51 | 53.71304 | -4.32100 | 27989 ft | 444 kts | 269° |
| 2026-05-06 17:51 | 53.71136 | -4.37285 | 27991 ft | 445 kts | 269° |
| 2026-05-06 17:51 | 53.70979 | -4.42518 | 27986 ft | 445 kts | 270° |
| 2026-05-06 17:51 | 53.70791 | -4.49430 | 27990 ft | 445 kts | 270° |
| 2026-05-06 17:52 | 53.70701 | -4.52888 | 27984 ft | 445 kts | 270° |
| 2026-05-06 17:52 | 53.70570 | -4.58080 | 27989 ft | 444 kts | 270° |
| 2026-05-06 17:52 | 53.70440 | -4.63260 | 27989 ft | 444 kts | 270° |
| 2026-05-06 17:52 | 53.70265 | -4.70206 | 27983 ft | 445 kts | 269° |
| 2026-05-06 17:53 | 53.70137 | -4.75285 | 27991 ft | 445 kts | 269° |
| 2026-05-06 17:53 | 53.70063 | -4.78159 | 27962 ft | 446 kts | 269° |
| 2026-05-06 17:53 | 53.69942 | -4.82822 | 27894 ft | 445 kts | 269° |
| 2026-05-06 17:53 | 53.69841 | -4.86674 | 27767 ft | 439 kts | 269° |
| 2026-05-06 17:54 | 53.69722 | -4.90949 | 27125 ft | 439 kts | 268° |
| 2026-05-06 17:54 | 53.69558 | -4.93853 | 26653 ft | 440 kts | 263° |
| 2026-05-06 17:54 | 53.69006 | -4.97765 | 26099 ft | 440 kts | 253° |
| 2026-05-06 17:54 | 53.67789 | -5.02789 | 25278 ft | 437 kts | 246° |
| 2026-05-06 17:55 | 53.66411 | -5.07369 | 23924 ft | 435 kts | 243° |
| 2026-05-06 17:55 | 53.64971 | -5.11788 | 23026 ft | 424 kts | 243° |
| 2026-05-06 17:55 | 53.63560 | -5.16104 | 22063 ft | 414 kts | 243° |
| 2026-05-06 17:55 | 53.62211 | -5.20341 | 21062 ft | 406 kts | 244° |
| 2026-05-06 17:56 | 53.60924 | -5.24510 | 20021 ft | 399 kts | 245° |
| 2026-05-06 17:56 | 53.59697 | -5.28590 | 18979 ft | 392 kts | 245° |
| 2026-05-06 17:56 | 53.58487 | -5.32679 | 17947 ft | 385 kts | 245° |
| 2026-05-06 17:56 | 53.57330 | -5.36623 | 16891 ft | 379 kts | 245° |
| 2026-05-06 17:57 | 53.56174 | -5.40584 | 15865 ft | 373 kts | 245° |
| 2026-05-06 17:57 | 53.55058 | -5.44415 | 14824 ft | 367 kts | 245° |
| 2026-05-06 17:57 | 53.53950 | -5.48214 | 13819 ft | 361 kts | 245° |
| 2026-05-06 17:57 | 53.52488 | -5.53228 | 12396 ft | 356 kts | 245° |
| 2026-05-06 17:58 | 53.51788 | -5.55639 | 11727 ft | 352 kts | 246° |
| 2026-05-06 17:58 | 53.50858 | -5.59449 | 10670 ft | 348 kts | 252° |
| 2026-05-06 17:58 | 53.50149 | -5.63280 | 9640 ft | 344 kts | 255° |
| 2026-05-06 17:58 | 53.49530 | -5.67105 | 8630 ft | 340 kts | 255° |
| 2026-05-06 17:59 | 53.48913 | -5.70884 | 7673 ft | 334 kts | 254° |
| 2026-05-06 17:59 | 53.48272 | -5.74585 | 6910 ft | 324 kts | 253° |
| 2026-05-06 17:59 | 53.47626 | -5.78134 | 6229 ft | 314 kts | 253° |
| 2026-05-06 17:59 | 53.46982 | -5.81575 | 5558 ft | 305 kts | 252° |
| 2026-05-06 18:00 | 53.46143 | -5.86000 | 4688 ft | 295 kts | 252° |
| 2026-05-06 18:00 | 53.45735 | -5.88145 | 4411 ft | 286 kts | 252° |
| 2026-05-06 18:00 | 53.45140 | -5.91271 | 3912 ft | 276 kts | 252° |
| 2026-05-06 18:00 | 53.44565 | -5.94292 | 3451 ft | 267 kts | 251° |
| 2026-05-06 18:01 | 53.44024 | -5.97137 | 3042 ft | 260 kts | 251° |
| 2026-05-06 18:01 | 53.43501 | -5.99880 | 3007 ft | 237 kts | 251° |
| 2026-05-06 18:01 | 53.43015 | -6.02430 | 3005 ft | 217 kts | 251° |
| 2026-05-06 18:01 | 53.42573 | -6.04745 | 2998 ft | 198 kts | 251° |
| 2026-05-06 18:02 | 53.42260 | -6.06916 | 3009 ft | 190 kts | 266° |
| 2026-05-06 18:02 | 53.42379 | -6.09067 | 3009 ft | 188 kts | 280° |
| 2026-05-06 18:02 | 53.42722 | -6.11304 | 2653 ft | 202 kts | 288° |
| 2026-05-06 18:02 | 53.43103 | -6.13570 | 2030 ft | 204 kts | 276° |
| 2026-05-06 18:03 | 53.43185 | -6.15918 | 1454 ft | 199 kts | 268° |
| 2026-05-06 18:03 | 53.43145 | -6.18154 | 1074 ft | 186 kts | 268° |
| 2026-05-06 18:03 | 53.43251 | -6.20212 | 796 ft | 173 kts | 281° |
| 2026-05-06 18:03 | 53.43408 | -6.22110 | 654 ft | 152 kts | 273° |
| 2026-05-06 18:04 | 53.43489 | -6.23872 | 381 ft | 150 kts | 274° |
| 2026-05-06 18:04 | 53.43577 | -6.25563 | 251 ft | 133 kts | 275° |
| 2026-05-06 18:04 | 53.43644 | -6.26724 | 251 ft | 70 kts | 276° |
| 2026-05-06 18:04 | 53.43623 | -6.27262 | 251 ft | 32 kts | 250° |
| 2026-05-06 18:05 | 53.43563 | -6.27500 | 251 ft | 18 kts | 238° |
| 2026-05-06 18:05 | 53.43519 | -6.27478 | 251 ft | 10 kts | 113° |
| 2026-05-06 18:05 | 53.43500 | -6.27296 | 251 ft | 19 kts | 95° |
| 2026-05-06 18:05 | 53.43487 | -6.27057 | 251 ft | 21 kts | 95° |
| 2026-05-06 18:06 | 53.43476 | -6.26816 | 251 ft | 20 kts | 95° |
| 2026-05-06 18:06 | 53.43462 | -6.26583 | 251 ft | 19 kts | 96° |
| 2026-05-06 18:06 | 53.43432 | -6.26367 | 251 ft | 18 kts | 134° |
| 2026-05-06 18:06 | 53.43336 | -6.26229 | 251 ft | 17 kts | 140° |
| 2026-05-06 18:07 | 53.43309 | -6.26065 | 251 ft | 15 kts | 67° |
| 2026-05-06 18:07 | 53.43352 | -6.25899 | 251 ft | 15 kts | 66° |
| 2026-05-06 18:07 | 53.43385 | -6.25695 | 251 ft | 18 kts | 117° |
| 2026-05-06 18:07 | 53.43280 | -6.25594 | 251 ft | 17 kts | 156° |
| 2026-05-06 18:08 | 53.43169 | -6.25515 | 251 ft | 16 kts | 158° |
| 2026-05-06 18:08 | 53.43093 | -6.25417 | 251 ft | 12 kts | 81° |
| 2026-05-06 18:08 | 53.43125 | -6.25288 | 251 ft | 10 kts | 67° |